Terminal Aerodrome Forecast
Issued by NWS

Home | Current Version | Previous Version | Text Only | Print | Product List | Glossary On
Versions: 1 2 3 4 5 6 7 8 9 10 11 12 13
000
FTUS44 KCRP 141100
TAFLRD
TAF
KLRD 141131Z 1412/1512 15008KT P6SM SKC
     FM141400 16008KT P6SM FEW050
     FM142200 14012KT P6SM SCT080=

USA.gov is the U.S. government's official web portal to all federal, state and local government web resources and services.